createdAt,value
2023-01-23T00:01:06.548Z,31.85
2023-01-23T00:03:34.139Z,32.07
2023-01-23T00:06:00.862Z,31.83
2023-01-23T00:08:27.200Z,31.70
2023-01-23T00:10:53.534Z,32.08
2023-01-23T00:13:20.827Z,31.83
2023-01-23T00:15:47.299Z,31.96
2023-01-23T00:18:13.665Z,31.91
2023-01-23T00:20:40.283Z,32.19
2023-01-23T00:23:06.789Z,31.83
2023-01-23T00:25:33.442Z,31.88
2023-01-23T00:28:00.089Z,31.74
2023-01-23T00:30:26.461Z,31.82
2023-01-23T00:32:52.787Z,32.07
2023-01-23T00:35:19.119Z,31.81
2023-01-23T00:37:45.512Z,31.87
2023-01-23T00:40:11.989Z,32.21
2023-01-23T00:42:38.373Z,32.01
2023-01-23T00:45:04.948Z,32.01
2023-01-23T00:47:31.496Z,32.06
2023-01-23T00:49:59.070Z,32.07
2023-01-23T00:52:25.895Z,32.08
2023-01-23T00:54:52.207Z,31.98
2023-01-23T00:57:18.533Z,32.09
2023-01-23T00:59:44.880Z,32.19
2023-01-23T01:02:11.196Z,32.19
2023-01-23T01:04:37.525Z,32.08
2023-01-23T01:07:03.859Z,31.98
2023-01-23T01:09:30.186Z,32.22
2023-01-23T01:11:56.579Z,32.19
2023-01-23T01:14:22.910Z,32.19
2023-01-23T01:16:49.248Z,32.23
2023-01-23T01:19:15.914Z,32.16
2023-01-23T01:21:42.332Z,32.00
2023-01-23T01:24:08.842Z,32.12
2023-01-23T01:26:35.270Z,32.17
2023-01-23T01:29:01.630Z,32.21
2023-01-23T01:31:28.070Z,31.94
2023-01-23T01:33:54.450Z,32.21
2023-01-23T01:36:21.576Z,32.20
2023-01-23T01:38:47.895Z,32.18
2023-01-23T01:41:14.453Z,32.26
2023-01-23T01:43:40.798Z,32.53
2023-01-23T01:46:07.084Z,32.33
2023-01-23T01:48:35.023Z,32.42
2023-01-23T01:51:01.373Z,32.42
2023-01-23T01:53:27.702Z,32.19
2023-01-23T01:55:54.032Z,32.19
2023-01-23T01:58:20.372Z,31.90
2023-01-23T02:00:46.709Z,32.05
2023-01-23T02:03:13.049Z,32.18
2023-01-23T02:05:40.066Z,32.08
2023-01-23T02:08:11.010Z,32.11
2023-01-23T02:10:37.430Z,32.02
2023-01-23T02:13:14.731Z,31.87
2023-01-23T02:15:41.048Z,32.03
2023-01-23T02:18:07.358Z,32.13
2023-01-23T02:20:33.671Z,32.06
2023-01-23T02:23:01.250Z,32.11
2023-01-23T02:25:27.524Z,31.87
2023-01-23T02:27:53.891Z,32.19
2023-01-23T02:30:21.408Z,32.36
2023-01-23T02:32:47.920Z,32.40
2023-01-23T02:35:22.470Z,32.38
2023-01-23T02:37:48.804Z,32.54
2023-01-23T02:40:15.549Z,32.23
2023-01-23T02:42:42.867Z,32.28
2023-01-23T02:45:10.197Z,32.36
2023-01-23T02:47:36.705Z,32.27
2023-01-23T02:50:03.034Z,32.22
2023-01-23T02:55:51.271Z,32.01
2023-01-23T02:58:36.038Z,32.18
2023-01-23T03:01:02.715Z,31.82
2023-01-23T03:03:30.514Z,31.95
2023-01-23T03:05:57.809Z,31.71
2023-01-23T03:08:24.091Z,31.48
2023-01-23T03:10:50.571Z,31.91
2023-01-23T03:13:16.906Z,31.71
2023-01-23T03:15:43.232Z,31.73
2023-01-23T03:18:09.517Z,31.78
2023-01-23T03:20:39.271Z,31.72
2023-01-23T03:23:05.579Z,31.65
2023-01-23T03:25:32.126Z,31.75
2023-01-23T03:27:58.421Z,31.41
2023-01-23T03:30:25.522Z,31.80
2023-01-23T03:32:51.817Z,32.02
2023-01-23T03:35:19.654Z,31.71
2023-01-23T03:37:46.437Z,31.81
2023-01-23T03:40:34.802Z,31.78
2023-01-23T03:43:01.079Z,31.92
2023-01-23T03:45:27.404Z,31.76
2023-01-23T03:47:53.705Z,31.80
2023-01-23T03:50:20.362Z,31.85
2023-01-23T03:52:46.848Z,31.82
2023-01-23T03:55:13.160Z,31.74
2023-01-23T03:57:39.464Z,31.72
2023-01-23T04:00:06.277Z,31.56
2023-01-23T04:02:32.619Z,31.70
2023-01-23T04:04:58.914Z,31.55
2023-01-23T04:07:25.193Z,31.63
2023-01-23T04:09:51.476Z,31.65
2023-01-23T04:12:17.751Z,31.58
2023-01-23T04:14:44.054Z,31.61
2023-01-23T04:17:10.473Z,31.60
2023-01-23T04:19:36.774Z,31.67
2023-01-23T04:22:03.116Z,31.66
2023-01-23T04:24:29.443Z,31.68
2023-01-23T04:26:55.812Z,31.56
2023-01-23T04:29:22.388Z,31.39
2023-01-23T04:31:49.071Z,31.47
2023-01-23T04:34:15.684Z,31.56
2023-01-23T04:36:42.061Z,31.64
2023-01-23T04:39:08.458Z,31.49
2023-01-23T04:41:34.842Z,31.54
2023-01-23T04:44:19.952Z,31.29
2023-01-23T04:46:46.885Z,31.66
2023-01-23T04:49:13.218Z,31.41
2023-01-23T04:51:39.534Z,31.50
2023-01-23T04:54:05.851Z,31.62
2023-01-23T04:56:32.179Z,31.60
2023-01-23T04:58:58.492Z,31.53
2023-01-23T05:01:24.823Z,31.59
2023-01-23T05:03:51.535Z,31.57
2023-01-23T05:06:17.854Z,31.49
2023-01-23T05:08:44.172Z,31.57
2023-01-23T05:11:10.504Z,31.59
2023-01-23T05:13:36.822Z,31.31
2023-01-23T05:16:03.183Z,31.50
2023-01-23T05:18:29.551Z,31.35
2023-01-23T05:20:55.876Z,31.34
2023-01-23T05:23:22.191Z,31.34
2023-01-23T05:25:48.772Z,31.45
2023-01-23T05:28:15.082Z,31.28
2023-01-23T05:30:41.468Z,31.30
2023-01-23T05:33:07.839Z,31.42
2023-01-23T05:35:34.162Z,31.37
2023-01-23T05:38:00.478Z,31.36
2023-01-23T05:40:26.810Z,31.39
2023-01-23T05:42:53.377Z,31.39
2023-01-23T05:45:19.702Z,31.21
2023-01-23T05:47:46.040Z,31.29
2023-01-23T05:50:14.554Z,31.31
2023-01-23T05:52:40.857Z,31.31
2023-01-23T05:55:07.419Z,31.32
2023-01-23T05:57:34.097Z,31.29
2023-01-23T06:00:00.438Z,31.49
2023-01-23T06:02:26.774Z,31.41
2023-01-23T06:04:55.622Z,31.25
2023-01-23T06:07:22.127Z,31.33
2023-01-23T06:09:48.455Z,31.47
2023-01-23T06:12:14.758Z,31.39
2023-01-23T06:14:41.095Z,31.45
2023-01-23T06:17:07.515Z,31.61
2023-01-23T06:19:33.835Z,31.28
2023-01-23T06:22:00.187Z,31.36
2023-01-23T06:24:26.509Z,31.33
2023-01-23T06:26:52.850Z,31.10
2023-01-23T06:29:19.159Z,31.16
2023-01-23T06:31:46.871Z,31.20
2023-01-23T06:34:13.646Z,31.23
2023-01-23T06:36:40.277Z,31.22
2023-01-23T06:39:06.860Z,31.26
2023-01-23T06:41:33.205Z,31.43
2023-01-23T06:43:59.520Z,31.42
2023-01-23T06:46:25.907Z,31.21
2023-01-23T06:48:52.351Z,31.31
2023-01-23T06:51:18.735Z,31.38
2023-01-23T06:53:45.067Z,31.23
2023-01-23T06:56:11.395Z,31.46
2023-01-23T06:58:40.606Z,31.50
2023-01-23T07:01:10.512Z,31.63
2023-01-23T07:03:36.840Z,31.63
2023-01-23T07:06:06.577Z,31.55
2023-01-23T07:08:33.755Z,31.36
2023-01-23T07:11:00.449Z,31.42
2023-01-23T07:13:26.765Z,31.54
2023-01-23T07:15:53.116Z,31.54
2023-01-23T07:18:19.445Z,31.56
2023-01-23T07:20:45.878Z,31.60
2023-01-23T07:23:12.200Z,31.43
2023-01-23T07:25:38.837Z,31.62
2023-01-23T07:28:05.353Z,31.84
2023-01-23T07:30:32.087Z,31.83
2023-01-23T07:32:58.729Z,31.57
2023-01-23T07:35:25.395Z,31.64
2023-01-23T07:37:51.723Z,31.57
2023-01-23T07:40:18.139Z,31.83
2023-01-23T07:42:44.849Z,31.78
2023-01-23T07:45:11.595Z,32.14
2023-01-23T07:47:39.720Z,32.05
2023-01-23T07:50:09.203Z,32.03
2023-01-23T07:52:36.179Z,31.47
2023-01-23T07:55:03.032Z,31.48
2023-01-23T07:57:29.367Z,31.34
2023-01-23T07:59:55.692Z,31.42
2023-01-23T08:02:22.033Z,31.67
2023-01-23T08:04:48.364Z,31.67
2023-01-23T08:07:14.932Z,31.68
2023-01-23T08:09:41.253Z,31.71
2023-01-23T08:12:07.630Z,31.47
2023-01-23T08:14:34.204Z,31.63
2023-01-23T08:17:01.559Z,31.62
2023-01-23T08:19:27.987Z,31.85
2023-01-23T08:21:54.330Z,31.68
2023-01-23T08:24:21.125Z,31.63
2023-01-23T08:26:47.581Z,31.67
2023-01-23T08:29:13.923Z,31.78
2023-01-23T08:31:40.505Z,31.79
2023-01-23T08:34:07.071Z,31.63
2023-01-23T08:36:33.484Z,31.77
2023-01-23T08:39:00.104Z,31.77
2023-01-23T08:41:26.524Z,31.58
2023-01-23T08:43:52.852Z,31.57
2023-01-23T08:46:19.217Z,31.34
2023-01-23T08:48:45.537Z,31.41
2023-01-23T08:51:12.743Z,31.26
2023-01-23T08:53:39.171Z,31.28
2023-01-23T08:56:10.598Z,31.08
2023-01-23T08:58:36.922Z,31.26
2023-01-23T09:01:03.288Z,31.33
2023-01-23T09:03:29.660Z,31.24
2023-01-23T09:05:55.994Z,31.32
2023-01-23T09:08:22.320Z,31.27
2023-01-23T09:10:48.637Z,31.46
2023-01-23T09:13:15.283Z,31.46
2023-01-23T09:15:41.931Z,31.65
2023-01-23T09:18:08.267Z,31.75
2023-01-23T09:20:34.643Z,31.68
2023-01-23T09:23:00.981Z,31.66
2023-01-23T09:25:27.366Z,31.72
2023-01-23T09:27:53.679Z,31.72
2023-01-23T09:30:20.311Z,31.70
2023-01-23T09:32:46.829Z,31.55
2023-01-23T09:35:13.399Z,31.54
2023-01-23T09:37:58.838Z,31.53
2023-01-23T09:40:25.880Z,31.62
2023-01-23T09:42:52.199Z,31.57
2023-01-23T09:45:21.783Z,31.55
2023-01-23T09:47:48.017Z,31.54
2023-01-23T09:50:15.641Z,31.60
2023-01-23T09:52:42.965Z,31.53
2023-01-23T09:55:15.262Z,31.44
2023-01-23T09:57:45.661Z,31.25
2023-01-23T10:00:24.628Z,31.05
2023-01-23T10:02:53.331Z,31.36
2023-01-23T10:05:20.829Z,31.20
2023-01-23T10:07:47.319Z,31.21
2023-01-23T10:10:13.648Z,31.20
2023-01-23T10:12:44.455Z,31.13
2023-01-23T10:15:14.432Z,31.20
2023-01-23T10:17:41.847Z,30.98
2023-01-23T10:20:17.529Z,30.60
2023-01-23T10:22:44.455Z,30.74
2023-01-23T10:25:10.857Z,30.89
2023-01-23T10:27:42.237Z,31.01
2023-01-23T10:30:11.763Z,31.08
2023-01-23T10:32:46.717Z,31.20
2023-01-23T10:35:15.491Z,31.14
2023-01-23T10:37:52.586Z,31.37
2023-01-23T10:43:47.626Z,31.83
2023-01-23T10:46:14.816Z,31.90
2023-01-23T10:48:50.729Z,32.14
2023-01-23T10:54:45.791Z,32.09
2023-01-23T10:57:14.785Z,32.21
2023-01-23T10:59:42.476Z,32.16
2023-01-23T11:02:15.060Z,31.96
2023-01-23T11:04:45.417Z,31.93
2023-01-23T11:07:16.531Z,31.88
2023-01-23T11:09:49.897Z,31.96
2023-01-23T11:12:20.658Z,31.90
2023-01-23T11:14:46.962Z,31.90
2023-01-23T11:17:14.531Z,31.94
2023-01-23T11:19:41.063Z,32.05
2023-01-23T11:22:20.167Z,31.91
2023-01-23T11:24:46.460Z,31.91
2023-01-23T11:27:15.765Z,31.79
2023-01-23T11:29:53.550Z,31.64
2023-01-23T11:32:19.940Z,32.06
2023-01-23T11:34:48.176Z,31.87
2023-01-23T11:37:17.360Z,32.01
2023-01-23T11:39:52.841Z,31.89
2023-01-23T11:42:19.608Z,31.97
2023-01-23T11:44:46.878Z,32.22
2023-01-23T11:47:32.186Z,32.30
2023-01-23T11:50:17.322Z,32.33
2023-01-23T11:52:47.328Z,32.29
2023-01-23T11:55:25.888Z,32.11
2023-01-23T11:58:06.297Z,32.11
2023-01-23T12:00:35.498Z,32.26
2023-01-23T12:03:01.873Z,32.39
2023-01-23T12:05:29.660Z,32.15
2023-01-23T12:08:34.513Z,31.87
2023-01-23T12:11:09.260Z,31.96
2023-01-23T12:13:54.066Z,31.93
2023-01-23T12:16:22.364Z,32.24
2023-01-23T12:19:07.321Z,32.56
2023-01-23T12:21:33.569Z,32.77
2023-01-23T12:23:59.764Z,32.71
2023-01-23T12:26:26.819Z,32.64
2023-01-23T12:28:56.256Z,32.75
2023-01-23T12:31:40.978Z,32.60
2023-01-23T12:34:16.618Z,32.47
2023-01-23T12:36:59.404Z,32.51
2023-01-23T12:39:29.707Z,32.27
2023-01-23T12:42:03.669Z,32.45
2023-01-23T12:44:31.759Z,32.39
2023-01-23T12:47:02.975Z,32.41
2023-01-23T12:49:29.605Z,32.49
2023-01-23T12:52:06.659Z,32.46
2023-01-23T12:54:39.451Z,32.67
2023-01-23T12:57:06.191Z,32.35
2023-01-23T12:59:32.715Z,32.57
2023-01-23T13:02:10.224Z,32.48
2023-01-23T13:04:59.906Z,32.45
2023-01-23T13:07:26.140Z,32.14
2023-01-23T13:10:04.936Z,31.91
2023-01-23T13:12:31.247Z,31.94
2023-01-23T13:15:17.362Z,31.56
2023-01-23T13:17:51.614Z,31.56
2023-01-23T13:20:36.860Z,31.45
2023-01-23T13:23:18.230Z,31.41
2023-01-23T13:25:44.515Z,31.31
2023-01-23T13:28:27.720Z,30.89
2023-01-23T13:30:59.715Z,30.86
2023-01-23T13:33:28.707Z,30.82
2023-01-23T13:35:56.050Z,30.92
2023-01-23T13:38:22.442Z,30.59
2023-01-23T13:41:04.380Z,30.49
2023-01-23T13:43:49.229Z,30.53
2023-01-23T13:46:35.713Z,30.40
2023-01-23T14:21:41.665Z,30.96
2023-01-23T14:24:25.177Z,31.03
2023-01-23T14:26:52.631Z,31.17
2023-01-23T14:29:22.039Z,31.13
2023-01-23T14:31:48.508Z,31.32
2023-01-23T14:34:17.904Z,31.11
2023-01-23T14:36:56.996Z,31.39
2023-01-23T14:39:25.362Z,31.45
2023-01-23T14:41:52.965Z,31.62
2023-01-23T14:44:23.951Z,31.43
2023-01-23T14:46:50.960Z,31.65
2023-01-23T14:49:17.281Z,31.65
2023-01-23T14:51:57.531Z,31.42
2023-01-23T14:54:25.184Z,31.61
2023-01-23T14:56:52.972Z,31.70
2023-01-23T14:59:26.942Z,31.64
2023-01-23T15:01:56.855Z,31.72
2023-01-23T15:04:23.614Z,31.85
2023-01-23T15:06:55.861Z,31.77
2023-01-23T15:09:31.870Z,31.59
2023-01-23T15:12:04.039Z,31.76
2023-01-23T15:14:34.621Z,31.68
2023-01-23T15:17:04.731Z,31.79
2023-01-23T15:19:31.575Z,31.21
2023-01-23T15:22:07.606Z,31.22
2023-01-23T15:24:33.951Z,31.36
2023-01-23T15:27:03.428Z,31.24
2023-01-23T15:29:29.769Z,31.48
2023-01-23T15:31:56.880Z,31.50
2023-01-23T15:34:27.374Z,31.32
2023-01-23T15:36:53.709Z,31.47
2023-01-23T15:39:27.929Z,31.44
2023-01-23T15:41:58.682Z,31.73
2023-01-23T15:44:27.887Z,31.87
2023-01-23T15:46:54.427Z,31.67
2023-01-23T15:49:25.748Z,31.73
2023-01-23T15:51:54.412Z,31.76
2023-01-23T15:54:25.266Z,31.94
2023-01-23T15:57:05.358Z,31.77
2023-01-23T15:59:32.917Z,31.73
2023-01-23T16:01:59.233Z,31.85
2023-01-23T16:04:25.572Z,31.80
2023-01-23T16:06:51.893Z,31.83
2023-01-23T16:09:20.983Z,31.95
2023-01-23T16:11:47.321Z,32.00
2023-01-23T16:14:16.890Z,31.84
2023-01-23T16:16:43.804Z,31.87
2023-01-23T16:19:10.283Z,31.85
2023-01-23T16:21:36.626Z,31.83
2023-01-23T16:24:04.341Z,32.02
2023-01-23T16:26:31.643Z,32.08
2023-01-23T16:29:12.725Z,31.85
2023-01-23T16:31:39.738Z,32.04
2023-01-23T16:34:06.134Z,31.85
2023-01-23T16:36:32.482Z,31.92
2023-01-23T16:38:58.857Z,31.86
2023-01-23T16:41:25.191Z,31.87
2023-01-23T16:43:51.562Z,32.06
2023-01-23T16:46:17.877Z,32.22
2023-01-23T16:48:44.516Z,32.15
2023-01-23T16:51:14.707Z,32.06
2023-01-23T16:53:41.752Z,31.97
2023-01-23T16:56:08.067Z,32.16
2023-01-23T16:58:35.124Z,31.93
2023-01-23T17:01:03.633Z,32.34
2023-01-23T17:03:34.161Z,31.84
2023-01-23T17:06:00.551Z,31.94
2023-01-23T17:08:26.916Z,31.96
2023-01-23T17:10:54.320Z,32.11
2023-01-23T17:13:21.179Z,32.09
2023-01-23T17:15:47.676Z,32.04
2023-01-23T17:18:27.495Z,31.94
2023-01-23T17:20:54.802Z,32.01
2023-01-23T17:23:21.356Z,32.18
2023-01-23T17:25:59.064Z,31.95
2023-01-23T17:28:26.519Z,32.13
2023-01-23T17:30:52.916Z,32.07
2023-01-23T17:33:19.219Z,31.94
2023-01-23T17:35:45.605Z,31.97
2023-01-23T17:38:22.115Z,31.65
2023-01-23T17:40:48.527Z,31.94
2023-01-23T17:43:15.332Z,31.94
2023-01-23T17:45:41.898Z,31.78
2023-01-23T17:48:12.162Z,31.56
2023-01-23T17:50:39.168Z,31.39
2023-01-23T17:53:05.485Z,31.15
2023-01-23T17:55:32.607Z,31.18
2023-01-23T17:57:59.014Z,31.13
2023-01-23T18:00:27.070Z,30.97
2023-01-23T18:02:59.768Z,30.77
2023-01-23T18:05:26.107Z,30.88
2023-01-23T18:07:54.242Z,30.40
2023-01-23T18:10:21.786Z,30.43
2023-01-23T18:12:58.668Z,30.04
2023-01-23T18:15:37.174Z,30.18
2023-01-23T18:18:03.449Z,29.96
2023-01-23T18:20:30.555Z,30.14
2023-01-23T18:22:57.152Z,30.24
2023-01-23T18:25:24.901Z,30.32
2023-01-23T18:27:52.443Z,30.70
2023-01-23T18:30:24.962Z,30.36
2023-01-23T18:32:57.293Z,30.70
2023-01-23T18:35:44.497Z,30.74
2023-01-23T18:38:10.781Z,31.06
2023-01-23T18:40:55.871Z,31.32
2023-01-23T18:43:34.729Z,30.96
2023-01-23T18:46:01.323Z,31.26
2023-01-23T18:48:27.776Z,31.66
2023-01-23T18:50:58.734Z,31.90
2023-01-23T18:53:36.189Z,32.96
2023-01-23T18:56:10.501Z,33.45
2023-01-23T18:58:39.792Z,33.71
2023-01-23T19:01:18.147Z,33.77
2023-01-23T19:03:44.818Z,33.19
2023-01-23T19:06:16.119Z,32.57
2023-01-23T19:08:43.107Z,33.19
2023-01-23T19:11:16.745Z,33.02
2023-01-23T19:13:55.474Z,33.30
2023-01-23T19:16:31.961Z,33.11
2023-01-23T19:19:15.897Z,33.16
2023-01-23T19:21:42.444Z,33.11
2023-01-23T19:24:09.925Z,32.96
2023-01-23T19:26:37.016Z,33.32
2023-01-23T19:29:19.955Z,33.28
2023-01-23T19:32:03.041Z,33.15
2023-01-23T19:34:30.990Z,33.35
2023-01-23T19:36:57.343Z,33.22
2023-01-23T19:39:23.677Z,33.70
2023-01-23T19:41:49.973Z,33.67
2023-01-23T19:44:16.729Z,33.74
2023-01-23T19:46:43.120Z,33.85
2023-01-23T19:49:09.845Z,33.57
2023-01-23T19:51:36.196Z,33.76
2023-01-23T19:54:02.677Z,33.71
2023-01-23T19:56:29.070Z,33.78
2023-01-23T19:58:56.379Z,33.78
2023-01-23T20:01:24.372Z,33.47
2023-01-23T20:03:50.902Z,33.67
2023-01-23T20:06:17.225Z,32.99
2023-01-23T20:08:43.553Z,32.96
2023-01-23T20:11:10.987Z,32.96
2023-01-23T20:13:37.416Z,32.63
2023-01-23T20:16:07.476Z,32.34
2023-01-23T20:18:33.786Z,32.38
2023-01-23T20:21:00.114Z,32.73
2023-01-23T20:23:29.130Z,32.44
2023-01-23T20:26:01.703Z,32.48
2023-01-23T20:28:28.130Z,32.56
2023-01-23T20:30:54.480Z,32.94
2023-01-23T20:33:21.559Z,32.59
2023-01-23T20:35:50.004Z,32.54
2023-01-23T20:38:16.319Z,32.43
2023-01-23T20:40:42.632Z,32.04
2023-01-23T20:43:08.947Z,32.15
2023-01-23T20:45:35.308Z,32.53
2023-01-23T20:48:01.759Z,32.57
2023-01-23T20:50:28.124Z,32.28
2023-01-23T20:53:13.125Z,32.32
2023-01-23T20:55:39.486Z,32.25
2023-01-23T20:58:41.300Z,32.27
2023-01-23T21:01:07.654Z,31.97
2023-01-23T21:03:33.996Z,32.03
2023-01-23T21:06:00.492Z,31.89
2023-01-23T21:08:26.833Z,32.34
2023-01-23T21:10:54.159Z,32.79
2023-01-23T21:13:20.539Z,32.16
2023-01-23T21:15:56.600Z,32.28
2023-01-23T21:18:22.925Z,32.28
2023-01-23T21:20:49.246Z,32.35
2023-01-23T21:23:15.562Z,32.41
2023-01-23T21:25:41.879Z,32.49
2023-01-23T21:28:08.190Z,32.83
2023-01-23T21:30:34.591Z,32.54
2023-01-23T21:33:00.941Z,32.42
2023-01-23T21:35:27.271Z,32.44
2023-01-23T21:37:53.577Z,32.53
2023-01-23T21:40:19.952Z,32.63
2023-01-23T21:42:46.269Z,32.63
2023-01-23T21:45:12.594Z,32.58
2023-01-23T21:47:38.954Z,33.00
2023-01-23T21:50:05.558Z,33.27
2023-01-23T21:52:31.870Z,32.83
2023-01-23T21:54:58.210Z,33.08
2023-01-23T21:57:24.545Z,32.64
2023-01-23T22:00:09.469Z,32.71
2023-01-23T22:02:35.858Z,32.88
2023-01-23T22:05:02.277Z,32.80
2023-01-23T22:07:28.637Z,32.53
2023-01-23T22:09:55.728Z,32.54
2023-01-23T22:12:22.049Z,32.43
2023-01-23T22:14:48.427Z,32.52
2023-01-23T22:17:14.746Z,32.17
2023-01-23T22:19:41.079Z,32.13
2023-01-23T22:22:07.485Z,32.36
2023-01-23T22:24:33.806Z,32.83
2023-01-23T22:27:00.181Z,32.39
2023-01-23T22:29:26.490Z,32.23
2023-01-23T22:31:52.927Z,32.55
2023-01-23T22:34:19.320Z,32.23
2023-01-23T22:36:45.625Z,32.37
2023-01-23T22:39:11.978Z,32.62
2023-01-23T22:41:38.304Z,32.71
2023-01-23T22:44:04.740Z,32.33
2023-01-23T22:46:32.241Z,32.67
2023-01-23T22:48:58.658Z,32.63
2023-01-23T22:51:25.454Z,32.50
2023-01-23T22:53:52.133Z,32.13
2023-01-23T22:56:18.494Z,31.45
2023-01-23T22:58:45.259Z,31.65
2023-01-23T23:01:11.769Z,31.74
2023-01-23T23:03:38.163Z,32.00
2023-01-23T23:06:05.222Z,32.05
2023-01-23T23:08:31.539Z,31.84
2023-01-23T23:11:04.029Z,32.16
2023-01-23T23:13:30.682Z,31.58
2023-01-23T23:15:57.002Z,31.59
2023-01-23T23:18:23.306Z,31.68
2023-01-23T23:20:49.623Z,32.11
2023-01-23T23:23:15.961Z,32.14
2023-01-23T23:25:42.414Z,31.99
2023-01-23T23:28:08.751Z,32.18
2023-01-23T23:30:35.083Z,32.21
2023-01-23T23:33:01.733Z,32.17
2023-01-23T23:35:28.056Z,32.22
2023-01-23T23:37:54.361Z,32.22
2023-01-23T23:40:20.695Z,32.15
2023-01-23T23:42:47.013Z,32.02
2023-01-23T23:45:13.345Z,32.11
2023-01-23T23:47:39.658Z,32.23
2023-01-23T23:50:06.216Z,32.33
2023-01-23T23:52:34.969Z,31.63
2023-01-23T23:55:02.759Z,31.78
2023-01-23T23:57:29.119Z,32.19
2023-01-23T23:59:55.494Z,32.14
